sensor_id;sensor_type;location;lat;lon;timestamp;pressure;altitude;pressure_sealevel;temperature;humidity
58979;BME280;44763;50.464;30.612;2024-02-15T00:01:51;100826.25;;;3.15;100.00
58979;BME280;44763;50.464;30.612;2024-02-15T00:03:53;100830.92;;;3.20;100.00
58979;BME280;44763;50.464;30.612;2024-02-15T00:05:55;100829.56;;;3.21;100.00
58979;BME280;44763;50.464;30.612;2024-02-15T00:07:57;100827.03;;;3.20;100.00
58979;BME280;44763;50.464;30.612;2024-02-15T00:09:58;100823.23;;;3.17;100.00
58979;BME280;44763;50.464;30.612;2024-02-15T00:12:00;100826.45;;;3.14;100.00
58979;BME280;44763;50.464;30.612;2024-02-15T00:14:02;100833.20;;;3.13;100.00
58979;BME280;44763;50.464;30.612;2024-02-15T00:16:04;100838.45;;;3.14;100.00
58979;BME280;44763;50.464;30.612;2024-02-15T00:18:06;100836.65;;;3.14;100.00
58979;BME280;44763;50.464;30.612;2024-02-15T00:20:09;100837.07;;;3.15;100.00
58979;BME280;44763;50.464;30.612;2024-02-15T00:22:11;100838.75;;;3.14;100.00
58979;BME280;44763;50.464;30.612;2024-02-15T00:24:13;100835.15;;;3.11;100.00
58979;BME280;44763;50.464;30.612;2024-02-15T00:26:16;100838.96;;;3.12;100.00
58979;BME280;44763;50.464;30.612;2024-02-15T00:28:18;100840.37;;;3.14;100.00
58979;BME280;44763;50.464;30.612;2024-02-15T00:30:20;100837.80;;;3.17;100.00
58979;BME280;44763;50.464;30.612;2024-02-15T00:32:24;100833.39;;;3.15;100.00
58979;BME280;44763;50.464;30.612;2024-02-15T00:34:27;100837.23;;;3.14;100.00
58979;BME280;44763;50.464;30.612;2024-02-15T00:36:29;100837.69;;;3.12;100.00
58979;BME280;44763;50.464;30.612;2024-02-15T00:38:34;100841.53;;;3.08;100.00
58979;BME280;44763;50.464;30.612;2024-02-15T00:40:37;100840.27;;;3.07;100.00
58979;BME280;44763;50.464;30.612;2024-02-15T00:42:38;100841.59;;;3.07;100.00
58979;BME280;44763;50.464;30.612;2024-02-15T00:44:41;100839.41;;;3.06;100.00
58979;BME280;44763;50.464;30.612;2024-02-15T00:46:43;100842.32;;;3.05;100.00
58979;BME280;44763;50.464;30.612;2024-02-15T00:48:45;100841.27;;;3.01;100.00
58979;BME280;44763;50.464;30.612;2024-02-15T00:50:47;100844.87;;;3.02;100.00
58979;BME280;44763;50.464;30.612;2024-02-15T00:52:50;100841.95;;;3.01;100.00
58979;BME280;44763;50.464;30.612;2024-02-15T00:54:51;100844.30;;;3.00;100.00
58979;BME280;44763;50.464;30.612;2024-02-15T00:56:53;100843.39;;;2.99;100.00
58979;BME280;44763;50.464;30.612;2024-02-15T00:58:55;100844.99;;;2.98;100.00
58979;BME280;44763;50.464;30.612;2024-02-15T01:00:57;100847.35;;;2.95;100.00
58979;BME280;44763;50.464;30.612;2024-02-15T01:02:59;100846.92;;;2.92;100.00
58979;BME280;44763;50.464;30.612;2024-02-15T01:05:01;100847.44;;;2.90;100.00
58979;BME280;44763;50.464;30.612;2024-02-15T01:07:03;100852.54;;;2.89;100.00
58979;BME280;44763;50.464;30.612;2024-02-15T01:09:05;100849.54;;;2.88;100.00
58979;BME280;44763;50.464;30.612;2024-02-15T01:11:07;100850.80;;;2.85;100.00
58979;BME280;44763;50.464;30.612;2024-02-15T01:13:11;100852.75;;;2.85;100.00
58979;BME280;44763;50.464;30.612;2024-02-15T01:15:14;100849.63;;;2.84;100.00
58979;BME280;44763;50.464;30.612;2024-02-15T01:17:19;100853.71;;;2.84;100.00
58979;BME280;44763;50.464;30.612;2024-02-15T01:19:21;100855.55;;;2.85;100.00
58979;BME280;44763;50.464;30.612;2024-02-15T01:21:23;100854.85;;;2.85;100.00
58979;BME280;44763;50.464;30.612;2024-02-15T01:23:26;100853.14;;;2.82;100.00
58979;BME280;44763;50.464;30.612;2024-02-15T01:25:28;100853.97;;;2.81;100.00
58979;BME280;44763;50.464;30.612;2024-02-15T01:27:30;100849.75;;;2.81;100.00
58979;BME280;44763;50.464;30.612;2024-02-15T01:29:31;100850.40;;;2.86;100.00
58979;BME280;44763;50.464;30.612;2024-02-15T01:31:33;100850.92;;;2.88;100.00
58979;BME280;44763;50.464;30.612;2024-02-15T01:33:35;100850.90;;;2.90;100.00
58979;BME280;44763;50.464;30.612;2024-02-15T01:35:38;100851.36;;;2.89;100.00
58979;BME280;44763;50.464;30.612;2024-02-15T01:37:40;100851.02;;;2.85;100.00
58979;BME280;44763;50.464;30.612;2024-02-15T01:39:42;100855.23;;;2.80;100.00
58979;BME280;44763;50.464;30.612;2024-02-15T01:41:48;100854.19;;;2.76;100.00
58979;BME280;44763;50.464;30.612;2024-02-15T01:43:53;100854.77;;;2.73;100.00
58979;BME280;44763;50.464;30.612;2024-02-15T01:45:57;100856.23;;;2.72;100.00
58979;BME280;44763;50.464;30.612;2024-02-15T01:48:01;100857.67;;;2.72;100.00
58979;BME280;44763;50.464;30.612;2024-02-15T01:50:06;100862.75;;;2.72;100.00
58979;BME280;44763;50.464;30.612;2024-02-15T01:52:09;100858.13;;;2.73;100.00
58979;BME280;44763;50.464;30.612;2024-02-15T01:54:13;100851.74;;;2.76;100.00
58979;BME280;44763;50.464;30.612;2024-02-15T01:56:16;100849.01;;;2.79;100.00
58979;BME280;44763;50.464;30.612;2024-02-15T01:58:19;100849.53;;;2.81;100.00
58979;BME280;44763;50.464;30.612;2024-02-15T02:00:22;100850.31;;;2.82;100.00
58979;BME280;44763;50.464;30.612;2024-02-15T02:02:25;100854.66;;;2.83;100.00
58979;BME280;44763;50.464;30.612;2024-02-15T02:04:29;100846.69;;;2.82;100.00
58979;BME280;44763;50.464;30.612;2024-02-15T02:06:33;100844.46;;;2.81;100.00
58979;BME280;44763;50.464;30.612;2024-02-15T02:08:35;100847.45;;;2.81;100.00
58979;BME280;44763;50.464;30.612;2024-02-15T02:10:37;100845.39;;;2.81;100.00
58979;BME280;44763;50.464;30.612;2024-02-15T02:12:40;100843.98;;;2.81;100.00
58979;BME280;44763;50.464;30.612;2024-02-15T02:14:41;100846.34;;;2.82;100.00
58979;BME280;44763;50.464;30.612;2024-02-15T02:16:43;100849.90;;;2.83;100.00
58979;BME280;44763;50.464;30.612;2024-02-15T02:18:48;100850.65;;;2.83;100.00
58979;BME280;44763;50.464;30.612;2024-02-15T02:20:50;100850.48;;;2.81;100.00
58979;BME280;44763;50.464;30.612;2024-02-15T02:22:53;100845.45;;;2.78;100.00
58979;BME280;44763;50.464;30.612;2024-02-15T02:25:06;100845.30;;;2.77;100.00
58979;BME280;44763;50.464;30.612;2024-02-15T02:27:11;100845.74;;;2.76;100.00
58979;BME280;44763;50.464;30.612;2024-02-15T02:29:15;100847.86;;;2.74;100.00
58979;BME280;44763;50.464;30.612;2024-02-15T02:31:17;100848.04;;;2.72;100.00
58979;BME280;44763;50.464;30.612;2024-02-15T02:33:19;100851.77;;;2.71;100.00
58979;BME280;44763;50.464;30.612;2024-02-15T02:35:26;100853.70;;;2.66;100.00
58979;BME280;44763;50.464;30.612;2024-02-15T02:37:29;100858.21;;;2.67;100.00
58979;BME280;44763;50.464;30.612;2024-02-15T02:39:31;100861.59;;;2.67;100.00
58979;BME280;44763;50.464;30.612;2024-02-15T02:41:33;100861.77;;;2.65;100.00
58979;BME280;44763;50.464;30.612;2024-02-15T02:43:35;100865.45;;;2.63;100.00
58979;BME280;44763;50.464;30.612;2024-02-15T02:45:37;100867.36;;;2.65;100.00
58979;BME280;44763;50.464;30.612;2024-02-15T02:47:39;100862.31;;;2.69;100.00
58979;BME280;44763;50.464;30.612;2024-02-15T02:49:41;100862.13;;;2.73;100.00
58979;BME280;44763;50.464;30.612;2024-02-15T02:51:43;100863.95;;;2.77;100.00
58979;BME280;44763;50.464;30.612;2024-02-15T02:53:46;100866.46;;;2.78;100.00
58979;BME280;44763;50.464;30.612;2024-02-15T02:55:49;100870.60;;;2.79;100.00
58979;BME280;44763;50.464;30.612;2024-02-15T02:57:51;100875.02;;;2.79;100.00
58979;BME280;44763;50.464;30.612;2024-02-15T02:59:54;100878.59;;;2.80;100.00
58979;BME280;44763;50.464;30.612;2024-02-15T03:01:56;100878.94;;;2.80;100.00
58979;BME280;44763;50.464;30.612;2024-02-15T03:03:58;100879.06;;;2.77;100.00
58979;BME280;44763;50.464;30.612;2024-02-15T03:06:00;100879.98;;;2.80;100.00
58979;BME280;44763;50.464;30.612;2024-02-15T03:08:03;100882.08;;;2.85;100.00
58979;BME280;44763;50.464;30.612;2024-02-15T03:10:06;100885.54;;;2.85;100.00
58979;BME280;44763;50.464;30.612;2024-02-15T03:12:11;100889.25;;;2.87;100.00
58979;BME280;44763;50.464;30.612;2024-02-15T03:14:13;100892.00;;;2.88;100.00
58979;BME280;44763;50.464;30.612;2024-02-15T03:16:15;100889.92;;;2.89;100.00
58979;BME280;44763;50.464;30.612;2024-02-15T03:18:18;100893.03;;;2.92;100.00
58979;BME280;44763;50.464;30.612;2024-02-15T03:20:20;100889.65;;;2.93;100.00
58979;BME280;44763;50.464;30.612;2024-02-15T03:22:24;100889.45;;;2.89;100.00
58979;BME280;44763;50.464;30.612;2024-02-15T03:24:27;100896.43;;;2.85;100.00
58979;BME280;44763;50.464;30.612;2024-02-15T03:26:32;100891.65;;;2.84;100.00
58979;BME280;44763;50.464;30.612;2024-02-15T03:28:44;100892.40;;;2.81;100.00
58979;BME280;44763;50.464;30.612;2024-02-15T03:30:46;100896.27;;;2.81;100.00
58979;BME280;44763;50.464;30.612;2024-02-15T03:32:48;100898.95;;;2.89;100.00
58979;BME280;44763;50.464;30.612;2024-02-15T03:34:53;100897.89;;;2.91;100.00
58979;BME280;44763;50.464;30.612;2024-02-15T03:36:55;100901.48;;;2.92;100.00
58979;BME280;44763;50.464;30.612;2024-02-15T03:38:57;100904.22;;;2.96;100.00
58979;BME280;44763;50.464;30.612;2024-02-15T03:40:59;100906.59;;;2.99;100.00
58979;BME280;44763;50.464;30.612;2024-02-15T03:43:01;100909.86;;;3.00;100.00
58979;BME280;44763;50.464;30.612;2024-02-15T03:45:08;100914.00;;;3.00;100.00
58979;BME280;44763;50.464;30.612;2024-02-15T03:47:11;100914.48;;;2.90;100.00
58979;BME280;44763;50.464;30.612;2024-02-15T03:49:15;100917.35;;;2.85;100.00
58979;BME280;44763;50.464;30.612;2024-02-15T03:51:17;100918.89;;;2.83;100.00
58979;BME280;44763;50.464;30.612;2024-02-15T03:53:24;100919.14;;;2.80;100.00
58979;BME280;44763;50.464;30.612;2024-02-15T03:55:26;100917.67;;;2.74;100.00
58979;BME280;44763;50.464;30.612;2024-02-15T03:57:29;100920.81;;;2.70;100.00
58979;BME280;44763;50.464;30.612;2024-02-15T03:59:30;100919.94;;;2.66;100.00
58979;BME280;44763;50.464;30.612;2024-02-15T04:01:33;100919.23;;;2.64;100.00
58979;BME280;44763;50.464;30.612;2024-02-15T04:03:35;100925.02;;;2.62;100.00
58979;BME280;44763;50.464;30.612;2024-02-15T04:05:37;100924.97;;;2.60;100.00
58979;BME280;44763;50.464;30.612;2024-02-15T04:07:40;100926.57;;;2.58;100.00
58979;BME280;44763;50.464;30.612;2024-02-15T04:09:42;100928.77;;;2.54;100.00
58979;BME280;44763;50.464;30.612;2024-02-15T04:11:44;100927.98;;;2.50;100.00
58979;BME280;44763;50.464;30.612;2024-02-15T04:13:48;100928.05;;;2.47;100.00
58979;BME280;44763;50.464;30.612;2024-02-15T04:15:50;100931.05;;;2.47;100.00
58979;BME280;44763;50.464;30.612;2024-02-15T04:17:54;100937.91;;;2.47;100.00
58979;BME280;44763;50.464;30.612;2024-02-15T04:19:58;100936.89;;;2.47;100.00
58979;BME280;44763;50.464;30.612;2024-02-15T04:22:00;100938.84;;;2.46;100.00
58979;BME280;44763;50.464;30.612;2024-02-15T04:24:02;100937.27;;;2.49;100.00
58979;BME280;44763;50.464;30.612;2024-02-15T04:26:04;100934.62;;;2.51;100.00
58979;BME280;44763;50.464;30.612;2024-02-15T04:28:06;100935.70;;;2.53;100.00
58979;BME280;44763;50.464;30.612;2024-02-15T04:30:10;100932.73;;;2.55;100.00
58979;BME280;44763;50.464;30.612;2024-02-15T04:32:13;100936.14;;;2.56;100.00
58979;BME280;44763;50.464;30.612;2024-02-15T04:34:18;100932.85;;;2.53;100.00
58979;BME280;44763;50.464;30.612;2024-02-15T04:36:21;100933.19;;;2.49;100.00
58979;BME280;44763;50.464;30.612;2024-02-15T04:38:26;100933.55;;;2.47;100.00
58979;BME280;44763;50.464;30.612;2024-02-15T04:40:28;100932.05;;;2.43;100.00
58979;BME280;44763;50.464;30.612;2024-02-15T04:42:30;100936.31;;;2.41;100.00
58979;BME280;44763;50.464;30.612;2024-02-15T04:44:34;100938.63;;;2.38;100.00
58979;BME280;44763;50.464;30.612;2024-02-15T04:46:37;100939.98;;;2.36;100.00
58979;BME280;44763;50.464;30.612;2024-02-15T04:48:38;100941.19;;;2.37;100.00
58979;BME280;44763;50.464;30.612;2024-02-15T04:50:43;100945.45;;;2.38;100.00
58979;BME280;44763;50.464;30.612;2024-02-15T04:52:45;100945.15;;;2.40;100.00
58979;BME280;44763;50.464;30.612;2024-02-15T04:54:48;100948.91;;;2.39;100.00
58979;BME280;44763;50.464;30.612;2024-02-15T04:56:49;100950.48;;;2.39;100.00
58979;BME280;44763;50.464;30.612;2024-02-15T04:58:55;100956.76;;;2.37;100.00
58979;BME280;44763;50.464;30.612;2024-02-15T05:00:57;100958.96;;;2.36;100.00
58979;BME280;44763;50.464;30.612;2024-02-15T05:03:02;100958.22;;;2.39;100.00
58979;BME280;44763;50.464;30.612;2024-02-15T05:05:04;100959.89;;;2.42;100.00
58979;BME280;44763;50.464;30.612;2024-02-15T05:07:06;100960.35;;;2.43;100.00
58979;BME280;44763;50.464;30.612;2024-02-15T05:09:07;100959.80;;;2.43;100.00
58979;BME280;44763;50.464;30.612;2024-02-15T05:11:12;100961.44;;;2.40;100.00
58979;BME280;44763;50.464;30.612;2024-02-15T05:13:19;100966.51;;;2.38;100.00
58979;BME280;44763;50.464;30.612;2024-02-15T05:15:21;100968.86;;;2.37;100.00
58979;BME280;44763;50.464;30.612;2024-02-15T05:17:27;100969.55;;;2.37;100.00
58979;BME280;44763;50.464;30.612;2024-02-15T05:19:34;100971.78;;;2.40;100.00
58979;BME280;44763;50.464;30.612;2024-02-15T05:21:37;100971.94;;;2.43;100.00
58979;BME280;44763;50.464;30.612;2024-02-15T05:23:39;100977.22;;;2.44;100.00
58979;BME280;44763;50.464;30.612;2024-02-15T05:25:41;100976.95;;;2.46;100.00
58979;BME280;44763;50.464;30.612;2024-02-15T05:27:43;100982.10;;;2.45;100.00
58979;BME280;44763;50.464;30.612;2024-02-15T05:29:45;100981.84;;;2.39;100.00
58979;BME280;44763;50.464;30.612;2024-02-15T05:31:47;100983.27;;;2.35;100.00
58979;BME280;44763;50.464;30.612;2024-02-15T05:33:53;100982.85;;;2.31;100.00
58979;BME280;44763;50.464;30.612;2024-02-15T05:35:55;100986.67;;;2.29;100.00
58979;BME280;44763;50.464;30.612;2024-02-15T05:37:57;100984.50;;;2.30;100.00
58979;BME280;44763;50.464;30.612;2024-02-15T05:39:59;100984.79;;;2.31;100.00
58979;BME280;44763;50.464;30.612;2024-02-15T05:42:00;100983.17;;;2.33;100.00
58979;BME280;44763;50.464;30.612;2024-02-15T05:44:05;100988.29;;;2.35;100.00
58979;BME280;44763;50.464;30.612;2024-02-15T05:46:09;100988.98;;;2.38;100.00
58979;BME280;44763;50.464;30.612;2024-02-15T05:48:11;100987.95;;;2.40;100.00
58979;BME280;44763;50.464;30.612;2024-02-15T05:50:14;100988.77;;;2.38;100.00
58979;BME280;44763;50.464;30.612;2024-02-15T05:52:16;100989.79;;;2.39;100.00
58979;BME280;44763;50.464;30.612;2024-02-15T05:54:20;100990.67;;;2.41;100.00
58979;BME280;44763;50.464;30.612;2024-02-15T05:56:25;100991.49;;;2.44;100.00
58979;BME280;44763;50.464;30.612;2024-02-15T05:58:27;100993.91;;;2.46;100.00
58979;BME280;44763;50.464;30.612;2024-02-15T06:00:30;100995.69;;;2.49;100.00
58979;BME280;44763;50.464;30.612;2024-02-15T06:02:32;100999.55;;;2.48;100.00
58979;BME280;44763;50.464;30.612;2024-02-15T06:04:34;100998.69;;;2.48;100.00
58979;BME280;44763;50.464;30.612;2024-02-15T06:06:36;100997.33;;;2.50;100.00
58979;BME280;44763;50.464;30.612;2024-02-15T06:08:38;100999.98;;;2.52;100.00
58979;BME280;44763;50.464;30.612;2024-02-15T06:10:40;101002.46;;;2.56;100.00
58979;BME280;44763;50.464;30.612;2024-02-15T06:12:42;101003.79;;;2.60;100.00
58979;BME280;44763;50.464;30.612;2024-02-15T06:14:44;101010.56;;;2.61;100.00
58979;BME280;44763;50.464;30.612;2024-02-15T06:16:46;101009.04;;;2.62;100.00
58979;BME280;44763;50.464;30.612;2024-02-15T06:18:47;101010.68;;;2.63;100.00
58979;BME280;44763;50.464;30.612;2024-02-15T06:20:50;101015.53;;;2.64;100.00
58979;BME280;44763;50.464;30.612;2024-02-15T06:22:56;101017.55;;;2.63;100.00
58979;BME280;44763;50.464;30.612;2024-02-15T06:24:58;101020.06;;;2.60;100.00
58979;BME280;44763;50.464;30.612;2024-02-15T06:27:00;101021.05;;;2.59;100.00
58979;BME280;44763;50.464;30.612;2024-02-15T06:29:03;101022.88;;;2.58;100.00
58979;BME280;44763;50.464;30.612;2024-02-15T06:31:23;101022.19;;;2.55;100.00
58979;BME280;44763;50.464;30.612;2024-02-15T06:33:43;101027.98;;;2.55;100.00
58979;BME280;44763;50.464;30.612;2024-02-15T06:36:05;101024.65;;;2.58;100.00
58979;BME280;44763;50.464;30.612;2024-02-15T06:38:28;101024.27;;;2.62;100.00
58979;BME280;44763;50.464;30.612;2024-02-15T06:40:52;101030.98;;;2.66;100.00
58979;BME280;44763;50.464;30.612;2024-02-15T06:42:55;101032.96;;;2.72;100.00
58979;BME280;44763;50.464;30.612;2024-02-15T06:44:57;101033.61;;;2.76;100.00
58979;BME280;44763;50.464;30.612;2024-02-15T06:47:00;101037.73;;;2.77;100.00
58979;BME280;44763;50.464;30.612;2024-02-15T06:49:01;101044.17;;;2.75;100.00
58979;BME280;44763;50.464;30.612;2024-02-15T06:51:04;101044.16;;;2.70;100.00
58979;BME280;44763;50.464;30.612;2024-02-15T06:53:07;101046.83;;;2.67;100.00
58979;BME280;44763;50.464;30.612;2024-02-15T06:55:10;101048.03;;;2.68;100.00
58979;BME280;44763;50.464;30.612;2024-02-15T06:57:16;101048.67;;;2.71;100.00
58979;BME280;44763;50.464;30.612;2024-02-15T06:59:18;101044.86;;;2.75;100.00
58979;BME280;44763;50.464;30.612;2024-02-15T07:01:23;101043.52;;;2.79;100.00
58979;BME280;44763;50.464;30.612;2024-02-15T07:03:28;101047.55;;;2.79;100.00
58979;BME280;44763;50.464;30.612;2024-02-15T07:05:31;101044.23;;;2.77;100.00
58979;BME280;44763;50.464;30.612;2024-02-15T07:07:33;101047.50;;;2.75;100.00
58979;BME280;44763;50.464;30.612;2024-02-15T07:09:36;101048.19;;;2.73;100.00
58979;BME280;44763;50.464;30.612;2024-02-15T07:11:37;101048.89;;;2.71;100.00
58979;BME280;44763;50.464;30.612;2024-02-15T07:13:39;101047.77;;;2.65;100.00
58979;BME280;44763;50.464;30.612;2024-02-15T07:15:41;101045.11;;;2.58;100.00
58979;BME280;44763;50.464;30.612;2024-02-15T07:17:43;101049.44;;;2.52;100.00
58979;BME280;44763;50.464;30.612;2024-02-15T07:19:46;101049.41;;;2.48;100.00
58979;BME280;44763;50.464;30.612;2024-02-15T07:21:50;101047.43;;;2.44;100.00
58979;BME280;44763;50.464;30.612;2024-02-15T07:23:53;101049.88;;;2.37;100.00
58979;BME280;44763;50.464;30.612;2024-02-15T07:25:58;101047.67;;;2.30;100.00
58979;BME280;44763;50.464;30.612;2024-02-15T07:28:00;101046.70;;;2.30;100.00
58979;BME280;44763;50.464;30.612;2024-02-15T07:30:02;101048.70;;;2.32;100.00
58979;BME280;44763;50.464;30.612;2024-02-15T07:32:06;101047.52;;;2.29;100.00
58979;BME280;44763;50.464;30.612;2024-02-15T07:34:08;101048.77;;;2.31;100.00
58979;BME280;44763;50.464;30.612;2024-02-15T07:36:10;101044.46;;;2.35;100.00
58979;BME280;44763;50.464;30.612;2024-02-15T07:38:12;101046.47;;;2.31;100.00
58979;BME280;44763;50.464;30.612;2024-02-15T07:40:13;101042.79;;;2.31;100.00
58979;BME280;44763;50.464;30.612;2024-02-15T07:42:16;101049.14;;;2.33;100.00
58979;BME280;44763;50.464;30.612;2024-02-15T07:44:18;101051.20;;;2.36;100.00
58979;BME280;44763;50.464;30.612;2024-02-15T07:46:20;101053.73;;;2.40;100.00
58979;BME280;44763;50.464;30.612;2024-02-15T07:48:22;101058.75;;;2.45;100.00
58979;BME280;44763;50.464;30.612;2024-02-15T07:50:23;101055.73;;;2.48;100.00
58979;BME280;44763;50.464;30.612;2024-02-15T07:52:25;101058.27;;;2.47;100.00
58979;BME280;44763;50.464;30.612;2024-02-15T07:54:28;101062.85;;;2.46;100.00
58979;BME280;44763;50.464;30.612;2024-02-15T07:56:31;101064.20;;;2.45;100.00
58979;BME280;44763;50.464;30.612;2024-02-15T07:58:33;101067.98;;;2.46;100.00
58979;BME280;44763;50.464;30.612;2024-02-15T08:00:34;101068.70;;;2.45;100.00
58979;BME280;44763;50.464;30.612;2024-02-15T08:02:38;101069.42;;;2.47;100.00
58979;BME280;44763;50.464;30.612;2024-02-15T08:04:42;101072.16;;;2.46;100.00
58979;BME280;44763;50.464;30.612;2024-02-15T08:06:46;101071.77;;;2.47;100.00
58979;BME280;44763;50.464;30.612;2024-02-15T08:08:50;101068.38;;;2.48;100.00
58979;BME280;44763;50.464;30.612;2024-02-15T08:10:54;101074.29;;;2.50;100.00
58979;BME280;44763;50.464;30.612;2024-02-15T08:12:56;101074.14;;;2.48;100.00
58979;BME280;44763;50.464;30.612;2024-02-15T08:15:00;101074.19;;;2.47;100.00
58979;BME280;44763;50.464;30.612;2024-02-15T08:17:01;101075.94;;;2.50;100.00
58979;BME280;44763;50.464;30.612;2024-02-15T08:19:04;101078.05;;;2.52;100.00
58979;BME280;44763;50.464;30.612;2024-02-15T08:21:07;101080.16;;;2.52;100.00
58979;BME280;44763;50.464;30.612;2024-02-15T08:23:09;101078.96;;;2.51;100.00
58979;BME280;44763;50.464;30.612;2024-02-15T08:25:13;101079.68;;;2.54;100.00
58979;BME280;44763;50.464;30.612;2024-02-15T08:27:16;101078.23;;;2.54;100.00
58979;BME280;44763;50.464;30.612;2024-02-15T08:29:18;101083.20;;;2.56;100.00
58979;BME280;44763;50.464;30.612;2024-02-15T08:31:21;101079.39;;;2.58;100.00
58979;BME280;44763;50.464;30.612;2024-02-15T08:33:26;101086.17;;;2.61;100.00
58979;BME280;44763;50.464;30.612;2024-02-15T08:35:30;101081.23;;;2.63;100.00
58979;BME280;44763;50.464;30.612;2024-02-15T08:37:32;101085.80;;;2.65;100.00
58979;BME280;44763;50.464;30.612;2024-02-15T08:39:36;101088.58;;;2.64;100.00
58979;BME280;44763;50.464;30.612;2024-02-15T08:41:38;101090.44;;;2.65;100.00
58979;BME280;44763;50.464;30.612;2024-02-15T08:43:40;101090.00;;;2.66;100.00
58979;BME280;44763;50.464;30.612;2024-02-15T08:45:46;101091.65;;;2.67;100.00
58979;BME280;44763;50.464;30.612;2024-02-15T08:47:48;101091.79;;;2.70;100.00
58979;BME280;44763;50.464;30.612;2024-02-15T08:49:51;101089.84;;;2.74;100.00
58979;BME280;44763;50.464;30.612;2024-02-15T08:51:53;101089.46;;;2.79;100.00
58979;BME280;44763;50.464;30.612;2024-02-15T08:53:55;101092.73;;;2.85;100.00
58979;BME280;44763;50.464;30.612;2024-02-15T08:55:59;101096.77;;;2.87;100.00
58979;BME280;44763;50.464;30.612;2024-02-15T08:58:02;101099.38;;;2.87;100.00
58979;BME280;44763;50.464;30.612;2024-02-15T09:00:06;101098.17;;;2.82;100.00
58979;BME280;44763;50.464;30.612;2024-02-15T09:02:15;101107.13;;;2.76;100.00
58979;BME280;44763;50.464;30.612;2024-02-15T09:04:17;101112.38;;;2.71;100.00
58979;BME280;44763;50.464;30.612;2024-02-15T09:06:19;101114.38;;;2.70;100.00
58979;BME280;44763;50.464;30.612;2024-02-15T09:08:21;101117.84;;;2.73;100.00
58979;BME280;44763;50.464;30.612;2024-02-15T09:10:23;101119.83;;;2.75;100.00
58979;BME280;44763;50.464;30.612;2024-02-15T09:12:25;101122.09;;;2.75;100.00
58979;BME280;44763;50.464;30.612;2024-02-15T09:14:27;101122.38;;;2.71;100.00
58979;BME280;44763;50.464;30.612;2024-02-15T09:16:29;101122.15;;;2.74;100.00
58979;BME280;44763;50.464;30.612;2024-02-15T09:18:32;101123.23;;;2.78;100.00
58979;BME280;44763;50.464;30.612;2024-02-15T09:20:36;101125.59;;;2.80;100.00
58979;BME280;44763;50.464;30.612;2024-02-15T09:22:42;101125.14;;;2.79;100.00
58979;BME280;44763;50.464;30.612;2024-02-15T09:24:44;101125.86;;;2.81;100.00
58979;BME280;44763;50.464;30.612;2024-02-15T09:26:46;101129.14;;;2.86;100.00
58979;BME280;44763;50.464;30.612;2024-02-15T09:28:48;101127.80;;;2.87;100.00
58979;BME280;44763;50.464;30.612;2024-02-15T09:30:50;101123.95;;;2.87;100.00
58979;BME280;44763;50.464;30.612;2024-02-15T09:32:54;101120.39;;;2.86;100.00
58979;BME280;44763;50.464;30.612;2024-02-15T09:34:56;101124.91;;;2.84;100.00
58979;BME280;44763;50.464;30.612;2024-02-15T09:36:58;101125.35;;;2.83;100.00
58979;BME280;44763;50.464;30.612;2024-02-15T09:39:00;101123.33;;;2.82;100.00
58979;BME280;44763;50.464;30.612;2024-02-15T09:41:02;101122.08;;;2.80;100.00
58979;BME280;44763;50.464;30.612;2024-02-15T09:43:08;101124.58;;;2.79;100.00
58979;BME280;44763;50.464;30.612;2024-02-15T09:45:12;101124.04;;;2.75;100.00
58979;BME280;44763;50.464;30.612;2024-02-15T09:47:18;101125.78;;;2.72;100.00
58979;BME280;44763;50.464;30.612;2024-02-15T09:49:19;101128.71;;;2.73;100.00
58979;BME280;44763;50.464;30.612;2024-02-15T09:51:24;101130.66;;;2.73;100.00
58979;BME280;44763;50.464;30.612;2024-02-15T09:53:27;101126.89;;;2.74;100.00
58979;BME280;44763;50.464;30.612;2024-02-15T09:55:30;101122.98;;;2.75;100.00
58979;BME280;44763;50.464;30.612;2024-02-15T09:57:33;101125.45;;;2.75;100.00
58979;BME280;44763;50.464;30.612;2024-02-15T09:59:34;101126.52;;;2.79;100.00
58979;BME280;44763;50.464;30.612;2024-02-15T10:01:38;101126.97;;;2.82;100.00
58979;BME280;44763;50.464;30.612;2024-02-15T10:03:42;101131.79;;;2.84;100.00
58979;BME280;44763;50.464;30.612;2024-02-15T10:05:44;101130.17;;;2.86;100.00
58979;BME280;44763;50.464;30.612;2024-02-15T10:07:47;101130.73;;;2.88;100.00
58979;BME280;44763;50.464;30.612;2024-02-15T10:09:50;101130.11;;;2.89;100.00
58979;BME280;44763;50.464;30.612;2024-02-15T10:12:00;101134.17;;;2.89;100.00
58979;BME280;44763;50.464;30.612;2024-02-15T10:14:10;101131.46;;;2.90;100.00
58979;BME280;44763;50.464;30.612;2024-02-15T10:16:19;101124.14;;;2.94;100.00
58979;BME280;44763;50.464;30.612;2024-02-15T10:18:27;101125.05;;;2.98;100.00
58979;BME280;44763;50.464;30.612;2024-02-15T10:20:30;101122.30;;;3.02;100.00
58979;BME280;44763;50.464;30.612;2024-02-15T10:22:33;101121.56;;;3.07;100.00
58979;BME280;44763;50.464;30.612;2024-02-15T10:24:37;101121.02;;;3.09;100.00
58979;BME280;44763;50.464;30.612;2024-02-15T10:26:42;101117.50;;;3.18;100.00
58979;BME280;44763;50.464;30.612;2024-02-15T10:28:46;101115.66;;;3.17;100.00
58979;BME280;44763;50.464;30.612;2024-02-15T10:30:48;101114.94;;;3.09;100.00
58979;BME280;44763;50.464;30.612;2024-02-15T10:32:51;101114.66;;;3.07;100.00
58979;BME280;44763;50.464;30.612;2024-02-15T10:34:58;101113.88;;;3.08;100.00
58979;BME280;44763;50.464;30.612;2024-02-15T10:37:16;101112.86;;;3.08;100.00